sensor_id;sensor_type;location;lat;lon;timestamp;pressure;altitude;pressure_sealevel;temperature;humidity
78675;BME280;67990;59.826;30.108;2023-06-04T00:00:26;101326.16;;;9.82;57.88
78675;BME280;67990;59.826;30.108;2023-06-04T00:02:53;101328.78;;;9.82;57.71
78675;BME280;67990;59.826;30.108;2023-06-04T00:05:21;101330.34;;;9.84;57.44
78675;BME280;67990;59.826;30.108;2023-06-04T00:07:51;101325.31;;;9.81;57.48
78675;BME280;67990;59.826;30.108;2023-06-04T00:10:20;101321.88;;;9.81;57.29
78675;BME280;67990;59.826;30.108;2023-06-04T00:13:06;101316.41;;;9.84;57.20
78675;BME280;67990;59.826;30.108;2023-06-04T00:15:33;101320.69;;;9.85;56.86
78675;BME280;67990;59.826;30.108;2023-06-04T00:23:32;101314.97;;;9.91;56.65
78675;BME280;67990;59.826;30.108;2023-06-04T00:28:47;101322.72;;;9.92;56.85
78675;BME280;67990;59.826;30.108;2023-06-04T00:34:02;101318.91;;;9.96;56.30
78675;BME280;67990;59.826;30.108;2023-06-04T00:36:30;101323.19;;;9.97;56.60
78675;BME280;67990;59.826;30.108;2023-06-04T00:38:57;101324.66;;;10.01;56.43
78675;BME280;67990;59.826;30.108;2023-06-04T00:41:26;101320.34;;;10.00;56.63
78675;BME280;67990;59.826;30.108;2023-06-04T00:46:57;101317.91;;;10.10;56.82
78675;BME280;67990;59.826;30.108;2023-06-04T00:49:25;101315.50;;;10.07;56.56
78675;BME280;67990;59.826;30.108;2023-06-04T00:51:53;101307.63;;;10.07;56.27
78675;BME280;67990;59.826;30.108;2023-06-04T00:54:20;101315.50;;;10.07;56.76
78675;BME280;67990;59.826;30.108;2023-06-04T00:56:49;101314.53;;;10.08;56.38
78675;BME280;67990;59.826;30.108;2023-06-04T00:59:16;101312.66;;;10.10;56.45
78675;BME280;67990;59.826;30.108;2023-06-04T01:01:49;101310.03;;;10.10;57.10
78675;BME280;67990;59.826;30.108;2023-06-04T01:04:24;101309.06;;;10.11;56.98
78675;BME280;67990;59.826;30.108;2023-06-04T01:15:16;101302.03;;;10.11;57.48
78675;BME280;67990;59.826;30.108;2023-06-04T01:18:02;101303.59;;;10.14;57.96
78675;BME280;67990;59.826;30.108;2023-06-04T01:20:35;101294.75;;;10.15;57.51
78675;BME280;67990;59.826;30.108;2023-06-04T01:23:26;101299.03;;;10.16;58.45
78675;BME280;67990;59.826;30.108;2023-06-04T01:29:36;101314.34;;;10.33;58.04
78675;BME280;67990;59.826;30.108;2023-06-04T01:32:23;101323.66;;;10.37;57.88
78675;BME280;67990;59.826;30.108;2023-06-04T01:34:50;101320.31;;;10.35;58.16
78675;BME280;67990;59.826;30.108;2023-06-04T01:37:18;101321.63;;;10.40;58.75
78675;BME280;67990;59.826;30.108;2023-06-04T01:39:45;101321.03;;;10.37;59.48
78675;BME280;67990;59.826;30.108;2023-06-04T01:42:13;101321.97;;;10.36;60.50
78675;BME280;67990;59.826;30.108;2023-06-04T01:47:45;101323.06;;;10.44;61.66
78675;BME280;67990;59.826;30.108;2023-06-04T01:50:31;101326.41;;;10.46;62.32
78675;BME280;67990;59.826;30.108;2023-06-04T01:56:21;101335.03;;;10.48;63.64
78675;BME280;67990;59.826;30.108;2023-06-04T01:58:49;101330.97;;;10.44;64.72
78675;BME280;67990;59.826;30.108;2023-06-04T02:04:21;101335.00;;;10.37;66.26
78675;BME280;67990;59.826;30.108;2023-06-04T02:06:50;101340.84;;;10.41;66.92
78675;BME280;67990;59.826;30.108;2023-06-04T02:12:21;101341.09;;;10.27;68.40
78675;BME280;67990;59.826;30.108;2023-06-04T02:15:10;101340.38;;;10.36;68.70
78675;BME280;67990;59.826;30.108;2023-06-04T02:17:57;101326.53;;;10.34;68.59
78675;BME280;67990;59.826;30.108;2023-06-04T02:20:25;101334.88;;;10.28;68.82
78675;BME280;67990;59.826;30.108;2023-06-04T02:23:10;101329.25;;;10.21;69.09
78675;BME280;67990;59.826;30.108;2023-06-04T02:25:56;101334.16;;;10.26;69.30
78675;BME280;67990;59.826;30.108;2023-06-04T02:28:23;101332.47;;;10.14;69.42
78675;BME280;67990;59.826;30.108;2023-06-04T02:30:50;101336.06;;;10.13;69.12
78675;BME280;67990;59.826;30.108;2023-06-04T02:33:19;101331.84;;;10.10;69.26
78675;BME280;67990;59.826;30.108;2023-06-04T02:35:46;101326.59;;;10.10;69.34
78675;BME280;67990;59.826;30.108;2023-06-04T02:38:13;101330.97;;;9.99;70.00
78675;BME280;67990;59.826;30.108;2023-06-04T02:40:42;101321.09;;;10.02;70.22
78675;BME280;67990;59.826;30.108;2023-06-04T02:43:10;101324.13;;;10.09;69.87
78675;BME280;67990;59.826;30.108;2023-06-04T02:45:37;101326.47;;;10.12;69.60
78675;BME280;67990;59.826;30.108;2023-06-04T02:48:05;101327.22;;;10.14;69.40
78675;BME280;67990;59.826;30.108;2023-06-04T02:50:33;101323.16;;;10.10;69.54
78675;BME280;67990;59.826;30.108;2023-06-04T02:53:00;101317.31;;;10.06;69.57
78675;BME280;67990;59.826;30.108;2023-06-04T02:55:46;101314.88;;;10.03;69.51
78675;BME280;67990;59.826;30.108;2023-06-04T02:58:32;101315.50;;;10.07;69.10
78675;BME280;67990;59.826;30.108;2023-06-04T03:01:23;101324.13;;;10.09;68.63
78675;BME280;67990;59.826;30.108;2023-06-04T03:09:45;101305.97;;;10.06;68.36
78675;BME280;67990;59.826;30.108;2023-06-04T03:12:13;101301.88;;;10.02;68.88
78675;BME280;67990;59.826;30.108;2023-06-04T03:14:40;101298.09;;;10.06;68.37
78675;BME280;67990;59.826;30.108;2023-06-04T03:17:08;101303.81;;;10.11;68.40
78675;BME280;67990;59.826;30.108;2023-06-04T03:19:37;101309.63;;;10.03;68.33
78675;BME280;67990;59.826;30.108;2023-06-04T03:22:06;101296.91;;;10.10;68.02
78675;BME280;67990;59.826;30.108;2023-06-04T03:24:35;101291.59;;;9.99;68.00
78675;BME280;67990;59.826;30.108;2023-06-04T03:27:20;101293.31;;;10.11;68.37
78675;BME280;67990;59.826;30.108;2023-06-04T03:33:00;101285.81;;;10.17;67.52
78675;BME280;67990;59.826;30.108;2023-06-04T03:35:28;101292.88;;;10.17;67.81
78675;BME280;67990;59.826;30.108;2023-06-04T03:38:15;101285.31;;;10.12;67.53
78675;BME280;67990;59.826;30.108;2023-06-04T03:41:00;101289.84;;;10.10;67.80
78675;BME280;67990;59.826;30.108;2023-06-04T03:43:27;101294.03;;;10.24;67.29
78675;BME280;67990;59.826;30.108;2023-06-04T03:45:59;101290.47;;;10.25;67.61
78675;BME280;67990;59.826;30.108;2023-06-04T03:48:26;101286.91;;;10.26;67.84
78675;BME280;67990;59.826;30.108;2023-06-04T03:50:53;101278.53;;;10.43;67.58
78675;BME280;67990;59.826;30.108;2023-06-04T03:53:22;101270.88;;;10.51;67.48
78675;BME280;67990;59.826;30.108;2023-06-04T03:55:50;101287.47;;;10.51;67.70
78675;BME280;67990;59.826;30.108;2023-06-04T03:58:18;101291.06;;;10.50;67.65
78675;BME280;67990;59.826;30.108;2023-06-04T04:00:49;101287.00;;;10.57;67.74
78675;BME280;67990;59.826;30.108;2023-06-04T04:09:10;101279.88;;;11.02;66.93
78675;BME280;67990;59.826;30.108;2023-06-04T04:11:37;101288.94;;;11.09;66.57
78675;BME280;67990;59.826;30.108;2023-06-04T04:14:23;101286.41;;;11.18;66.93
78675;BME280;67990;59.826;30.108;2023-06-04T04:17:08;101280.28;;;11.29;66.91
78675;BME280;67990;59.826;30.108;2023-06-04T04:19:55;101283.97;;;11.58;66.76
78675;BME280;67990;59.826;30.108;2023-06-04T04:22:22;101284.84;;;11.79;65.94
78675;BME280;67990;59.826;30.108;2023-06-04T04:27:55;101291.03;;;12.19;65.04
78675;BME280;67990;59.826;30.108;2023-06-04T04:30:26;101288.94;;;12.13;64.47
78675;BME280;67990;59.826;30.108;2023-06-04T04:32:54;101282.50;;;12.06;64.22
78675;BME280;67990;59.826;30.108;2023-06-04T04:35:32;101292.91;;;12.08;64.92
78675;BME280;67990;59.826;30.108;2023-06-04T04:38:01;101281.38;;;11.99;65.60
78675;BME280;67990;59.826;30.108;2023-06-04T04:40:32;101282.13;;;11.90;66.14
78675;BME280;67990;59.826;30.108;2023-06-04T04:43:02;101275.63;;;12.15;65.59
78675;BME280;67990;59.826;30.108;2023-06-04T04:45:48;101258.06;;;12.25;65.97
78675;BME280;67990;59.826;30.108;2023-06-04T04:48:16;101260.38;;;12.18;65.97
78675;BME280;67990;59.826;30.108;2023-06-04T04:51:02;101265.69;;;12.28;66.47
78675;BME280;67990;59.826;30.108;2023-06-04T04:59:45;101270.69;;;13.19;64.12
78675;BME280;67990;59.826;30.108;2023-06-04T05:02:13;101269.88;;;13.38;63.67
78675;BME280;67990;59.826;30.108;2023-06-04T05:07:26;101272.25;;;14.15;62.68
78675;BME280;67990;59.826;30.108;2023-06-04T05:09:54;101262.19;;;16.64;58.45
78675;BME280;67990;59.826;30.108;2023-06-04T05:12:25;101255.88;;;17.79;51.89
78675;BME280;67990;59.826;30.108;2023-06-04T05:14:53;101246.56;;;17.83;50.73
78675;BME280;67990;59.826;30.108;2023-06-04T05:20:09;101255.53;;;16.34;53.96
78675;BME280;67990;59.826;30.108;2023-06-04T05:22:41;101253.91;;;15.39;55.79
78675;BME280;67990;59.826;30.108;2023-06-04T05:25:09;101253.56;;;15.07;56.49
78675;BME280;67990;59.826;30.108;2023-06-04T05:27:39;101254.41;;;14.81;57.45
78675;BME280;67990;59.826;30.108;2023-06-04T05:30:10;101250.59;;;14.48;58.30
78675;BME280;67990;59.826;30.108;2023-06-04T05:36:03;101244.72;;;15.34;57.60
78675;BME280;67990;59.826;30.108;2023-06-04T05:41:50;101233.00;;;15.54;56.90
78675;BME280;67990;59.826;30.108;2023-06-04T05:44:19;101236.91;;;15.67;56.25
78675;BME280;67990;59.826;30.108;2023-06-04T05:46:47;101246.78;;;16.08;55.34
78675;BME280;67990;59.826;30.108;2023-06-04T05:49:15;101238.41;;;17.20;51.77
78675;BME280;67990;59.826;30.108;2023-06-04T05:51:43;101232.97;;;17.46;52.14
78675;BME280;67990;59.826;30.108;2023-06-04T05:54:10;101241.06;;;19.16;49.25
78675;BME280;67990;59.826;30.108;2023-06-04T05:57:14;101243.47;;;19.33;48.26
78675;BME280;67990;59.826;30.108;2023-06-04T05:59:43;101242.69;;;18.64;48.68
78675;BME280;67990;59.826;30.108;2023-06-04T06:02:48;101238.69;;;18.13;48.72
78675;BME280;67990;59.826;30.108;2023-06-04T06:05:28;101241.72;;;17.06;50.33
78675;BME280;67990;59.826;30.108;2023-06-04T06:07:56;101255.09;;;16.81;51.96
78675;BME280;67990;59.826;30.108;2023-06-04T06:10:23;101252.69;;;16.28;52.89
78675;BME280;67990;59.826;30.108;2023-06-04T06:12:52;101232.44;;;15.68;54.78
78675;BME280;67990;59.826;30.108;2023-06-04T06:15:20;101260.69;;;15.59;55.84
78675;BME280;67990;59.826;30.108;2023-06-04T06:17:49;101259.22;;;15.30;56.87
78675;BME280;67990;59.826;30.108;2023-06-04T06:20:17;101258.09;;;15.32;58.47
78675;BME280;67990;59.826;30.108;2023-06-04T06:22:46;101260.88;;;15.83;57.73
78675;BME280;67990;59.826;30.108;2023-06-04T06:25:15;101257.25;;;16.10;56.47
78675;BME280;67990;59.826;30.108;2023-06-04T06:28:05;101259.00;;;16.27;55.82
78675;BME280;67990;59.826;30.108;2023-06-04T06:30:34;101265.84;;;16.37;56.10
78675;BME280;67990;59.826;30.108;2023-06-04T06:33:20;101254.69;;;16.34;56.54
78675;BME280;67990;59.826;30.108;2023-06-04T06:41:20;101270.84;;;15.02;58.47
78675;BME280;67990;59.826;30.108;2023-06-04T06:43:47;101270.19;;;14.73;58.80
78675;BME280;67990;59.826;30.108;2023-06-04T06:46:16;101277.78;;;14.31;60.70
78675;BME280;67990;59.826;30.108;2023-06-04T06:49:01;101260.50;;;13.91;62.03
78675;BME280;67990;59.826;30.108;2023-06-04T06:54:31;101274.78;;;14.07;63.14
78675;BME280;67990;59.826;30.108;2023-06-04T06:56:58;101272.53;;;14.22;63.71
78675;BME280;67990;59.826;30.108;2023-06-04T07:00:02;101281.56;;;14.29;63.65
78675;BME280;67990;59.826;30.108;2023-06-04T07:02:33;101275.00;;;14.60;63.65
78675;BME280;67990;59.826;30.108;2023-06-04T07:05:19;101275.50;;;15.17;62.81
78675;BME280;67990;59.826;30.108;2023-06-04T07:10:32;101279.34;;;15.05;61.97
78675;BME280;67990;59.826;30.108;2023-06-04T07:12:59;101279.97;;;14.90;61.20
78675;BME280;67990;59.826;30.108;2023-06-04T07:15:26;101279.75;;;14.83;61.14
78675;BME280;67990;59.826;30.108;2023-06-04T07:18:13;101272.75;;;14.92;61.30
78675;BME280;67990;59.826;30.108;2023-06-04T07:26:33;101288.22;;;16.35;59.44
78675;BME280;67990;59.826;30.108;2023-06-04T07:29:19;101277.78;;;17.33;56.35
78675;BME280;67990;59.826;30.108;2023-06-04T07:31:47;101279.47;;;17.90;54.53
78675;BME280;67990;59.826;30.108;2023-06-04T07:34:15;101272.09;;;18.24;52.66
78675;BME280;67990;59.826;30.108;2023-06-04T07:36:42;101274.38;;;18.43;51.41
78675;BME280;67990;59.826;30.108;2023-06-04T07:39:09;101266.94;;;19.30;50.61
78675;BME280;67990;59.826;30.108;2023-06-04T07:41:37;101268.75;;;20.84;48.25
78675;BME280;67990;59.826;30.108;2023-06-04T07:44:39;101270.53;;;20.19;46.30
78675;BME280;67990;59.826;30.108;2023-06-04T07:47:06;101262.47;;;19.00;48.23
78675;BME280;67990;59.826;30.108;2023-06-04T07:49:53;101278.94;;;18.73;50.59
78675;BME280;67990;59.826;30.108;2023-06-04T07:52:20;101276.56;;;19.39;49.77
78675;BME280;67990;59.826;30.108;2023-06-04T07:54:47;101271.69;;;19.42;49.51
78675;BME280;67990;59.826;30.108;2023-06-04T07:57:32;101273.53;;;18.89;49.63
78675;BME280;67990;59.826;30.108;2023-06-04T07:59:59;101268.00;;;17.97;50.91
78675;BME280;67990;59.826;30.108;2023-06-04T08:02:37;101281.91;;;18.07;51.03
78675;BME280;67990;59.826;30.108;2023-06-04T08:05:06;101276.41;;;18.17;51.57
78675;BME280;67990;59.826;30.108;2023-06-04T08:07:33;101280.47;;;17.49;51.82
78675;BME280;67990;59.826;30.108;2023-06-04T08:10:00;101284.41;;;17.29;52.25
78675;BME280;67990;59.826;30.108;2023-06-04T08:12:28;101285.06;;;17.31;52.12
78675;BME280;67990;59.826;30.108;2023-06-04T08:14:55;101285.97;;;16.90;52.14
78675;BME280;67990;59.826;30.108;2023-06-04T08:17:41;101291.09;;;17.73;52.19
78675;BME280;67990;59.826;30.108;2023-06-04T08:20:32;101288.56;;;18.74;50.75
78675;BME280;67990;59.826;30.108;2023-06-04T08:23:21;101288.13;;;18.62;49.44
78675;BME280;67990;59.826;30.108;2023-06-04T08:26:26;101287.72;;;18.19;50.59
78675;BME280;67990;59.826;30.108;2023-06-04T08:29:03;101280.94;;;18.63;49.68
78675;BME280;67990;59.826;30.108;2023-06-04T08:34:49;101281.63;;;17.54;50.98
78675;BME280;67990;59.826;30.108;2023-06-04T08:37:18;101292.69;;;17.18;52.25
78675;BME280;67990;59.826;30.108;2023-06-04T08:39:45;101282.94;;;17.50;52.59
78675;BME280;67990;59.826;30.108;2023-06-04T08:42:15;101291.38;;;18.18;51.49
78675;BME280;67990;59.826;30.108;2023-06-04T08:44:49;101288.63;;;18.96;49.15
78675;BME280;67990;59.826;30.108;2023-06-04T08:47:19;101279.00;;;18.57;48.99
78675;BME280;67990;59.826;30.108;2023-06-04T08:49:49;101288.22;;;18.38;49.15
78675;BME280;67990;59.826;30.108;2023-06-04T08:52:19;101294.38;;;18.15;50.09
78675;BME280;67990;59.826;30.108;2023-06-04T08:54:48;101289.16;;;19.67;49.42
78675;BME280;67990;59.826;30.108;2023-06-04T08:57:17;101275.09;;;22.03;44.58
78675;BME280;67990;59.826;30.108;2023-06-04T08:59:45;101276.72;;;22.04;42.12
78675;BME280;67990;59.826;30.108;2023-06-04T09:02:13;101283.94;;;20.83;41.21
78675;BME280;67990;59.826;30.108;2023-06-04T09:04:41;101275.94;;;20.54;42.78
78675;BME280;67990;59.826;30.108;2023-06-04T09:07:10;101277.59;;;20.12;43.35
78675;BME280;67990;59.826;30.108;2023-06-04T09:12:26;101290.41;;;19.57;44.51
78675;BME280;67990;59.826;30.108;2023-06-04T09:14:54;101285.31;;;19.25;44.65
78675;BME280;67990;59.826;30.108;2023-06-04T09:17:22;101285.22;;;18.72;45.89
78675;BME280;67990;59.826;30.108;2023-06-04T09:19:50;101284.31;;;18.95;45.77
78675;BME280;67990;59.826;30.108;2023-06-04T09:22:17;101278.34;;;19.16;46.19
78675;BME280;67990;59.826;30.108;2023-06-04T09:24:47;101281.34;;;19.66;45.26
78675;BME280;67990;59.826;30.108;2023-06-04T09:30:02;101281.50;;;20.01;43.17
78675;BME280;67990;59.826;30.108;2023-06-04T09:32:46;101287.00;;;20.37;43.38
78675;BME280;67990;59.826;30.108;2023-06-04T09:35:15;101289.25;;;21.55;42.10
78675;BME280;67990;59.826;30.108;2023-06-04T09:37:52;101283.81;;;21.90;40.33
78675;BME280;67990;59.826;30.108;2023-06-04T09:40:21;101278.13;;;21.72;39.68
78675;BME280;67990;59.826;30.108;2023-06-04T09:42:49;101285.66;;;21.05;40.76
78675;BME280;67990;59.826;30.108;2023-06-04T09:48:34;101289.16;;;19.67;43.07
78675;BME280;67990;59.826;30.108;2023-06-04T09:53:56;101285.69;;;18.45;44.43
78675;BME280;67990;59.826;30.108;2023-06-04T09:56:42;101277.16;;;17.63;45.98
78675;BME280;67990;59.826;30.108;2023-06-04T10:01:55;101280.44;;;17.97;45.76
78675;BME280;67990;59.826;30.108;2023-06-04T10:04:23;101280.94;;;18.00;44.89
78675;BME280;67990;59.826;30.108;2023-06-04T10:07:09;101278.13;;;17.94;45.75
78675;BME280;67990;59.826;30.108;2023-06-04T10:09:38;101270.38;;;18.47;44.67
78675;BME280;67990;59.826;30.108;2023-06-04T10:12:35;101275.94;;;18.68;44.42
78675;BME280;67990;59.826;30.108;2023-06-04T10:15:07;101285.66;;;18.91;44.15
78675;BME280;67990;59.826;30.108;2023-06-04T10:17:55;101271.59;;;19.36;45.27
78675;BME280;67990;59.826;30.108;2023-06-04T10:20:23;101278.34;;;20.20;46.12
78675;BME280;67990;59.826;30.108;2023-06-04T10:23:09;101281.88;;;19.84;43.80
78675;BME280;67990;59.826;30.108;2023-06-04T10:25:37;101291.28;;;18.96;44.63
78675;BME280;67990;59.826;30.108;2023-06-04T10:31:10;101305.84;;;18.15;46.15
78675;BME280;67990;59.826;30.108;2023-06-04T10:33:38;101306.66;;;18.40;46.52
78675;BME280;67990;59.826;30.108;2023-06-04T10:36:18;101305.16;;;18.29;46.83
78675;BME280;67990;59.826;30.108;2023-06-04T10:41:32;101304.22;;;17.90;46.57
78675;BME280;67990;59.826;30.108;2023-06-04T10:44:18;101297.06;;;17.51;47.82
78675;BME280;67990;59.826;30.108;2023-06-04T10:46:47;101299.31;;;17.22;48.49
78675;BME280;67990;59.826;30.108;2023-06-04T10:49:32;101300.31;;;17.21;48.42
78675;BME280;67990;59.826;30.108;2023-06-04T10:52:09;101300.31;;;17.13;48.97
78675;BME280;67990;59.826;30.108;2023-06-04T10:54:37;101312.03;;;16.94;49.25
78675;BME280;67990;59.826;30.108;2023-06-04T10:57:10;101315.44;;;16.71;49.23
78675;BME280;67990;59.826;30.108;2023-06-04T11:02:26;101311.00;;;16.87;49.68
78675;BME280;67990;59.826;30.108;2023-06-04T11:05:00;101315.06;;;17.07;49.37
78675;BME280;67990;59.826;30.108;2023-06-04T11:07:41;101307.78;;;17.17;48.47
78675;BME280;67990;59.826;30.108;2023-06-04T11:10:11;101295.16;;;17.19;48.69
78675;BME280;67990;59.826;30.108;2023-06-04T11:12:42;101308.44;;;17.19;48.67
78675;BME280;67990;59.826;30.108;2023-06-04T11:15:09;101303.22;;;17.43;48.92
78675;BME280;67990;59.826;30.108;2023-06-04T11:17:48;101308.50;;;18.07;47.83
78675;BME280;67990;59.826;30.108;2023-06-04T11:20:33;101303.31;;;18.38;47.40
78675;BME280;67990;59.826;30.108;2023-06-04T11:23:00;101302.75;;;18.66;47.97
78675;BME280;67990;59.826;30.108;2023-06-04T11:25:29;101304.78;;;18.95;48.00
78675;BME280;67990;59.826;30.108;2023-06-04T11:27:59;101306.84;;;19.07;46.50
78675;BME280;67990;59.826;30.108;2023-06-04T11:30:27;101308.28;;;19.26;46.04
78675;BME280;67990;59.826;30.108;2023-06-04T11:33:02;101310.72;;;19.58;44.10
78675;BME280;67990;59.826;30.108;2023-06-04T11:35:31;101313.44;;;19.72;44.21
78675;BME280;67990;59.826;30.108;2023-06-04T11:37:58;101305.16;;;19.67;43.52
78675;BME280;67990;59.826;30.108;2023-06-04T11:40:43;101316.28;;;19.71;43.60
78675;BME280;67990;59.826;30.108;2023-06-04T11:43:11;101322.75;;;19.54;43.04
78675;BME280;67990;59.826;30.108;2023-06-04T11:48:25;101313.56;;;19.34;45.25
78675;BME280;67990;59.826;30.108;2023-06-04T11:51:30;101332.81;;;19.44;45.93
78675;BME280;67990;59.826;30.108;2023-06-04T11:53:57;101334.75;;;19.19;45.95
78675;BME280;67990;59.826;30.108;2023-06-04T11:56:25;101341.66;;;18.75;47.09
78675;BME280;67990;59.826;30.108;2023-06-04T11:59:12;101334.88;;;18.57;48.03
78675;BME280;67990;59.826;30.108;2023-06-04T12:01:58;101346.41;;;18.25;49.24
78675;BME280;67990;59.826;30.108;2023-06-04T12:04:44;101350.25;;;18.15;49.99
78675;BME280;67990;59.826;30.108;2023-06-04T12:07:47;101354.19;;;18.27;50.00
78675;BME280;67990;59.826;30.108;2023-06-04T12:10:16;101350.00;;;18.64;49.94
78675;BME280;67990;59.826;30.108;2023-06-04T12:12:44;101345.47;;;19.11;49.30
78675;BME280;67990;59.826;30.108;2023-06-04T12:15:31;101344.69;;;19.64;47.94
78675;BME280;67990;59.826;30.108;2023-06-04T12:21:04;101348.75;;;19.97;46.38
78675;BME280;67990;59.826;30.108;2023-06-04T12:29:21;101350.66;;;19.66;47.44
78675;BME280;67990;59.826;30.108;2023-06-04T12:37:22;101353.16;;;20.12;44.05
78675;BME280;67990;59.826;30.108;2023-06-04T12:39:51;101354.44;;;20.16;44.66
78675;BME280;67990;59.826;30.108;2023-06-04T12:42:19;101350.94;;;20.16;42.53
78675;BME280;67990;59.826;30.108;2023-06-04T12:44:46;101352.63;;;20.17;42.12
78675;BME280;67990;59.826;30.108;2023-06-04T12:47:13;101343.50;;;20.26;42.13
78675;BME280;67990;59.826;30.108;2023-06-04T12:49:42;101353.78;;;19.92;41.18
78675;BME280;67990;59.826;30.108;2023-06-04T12:52:09;101351.00;;;19.40;44.14
78675;BME280;67990;59.826;30.108;2023-06-04T12:54:38;101345.22;;;19.59;45.30
78675;BME280;67990;59.826;30.108;2023-06-04T12:57:24;101344.97;;;19.91;44.21
78675;BME280;67990;59.826;30.108;2023-06-04T13:00:28;101354.50;;;19.41;44.84
78675;BME280;67990;59.826;30.108;2023-06-04T13:05:59;101357.78;;;19.51;43.47
78675;BME280;67990;59.826;30.108;2023-06-04T13:08:26;101356.16;;;19.42;44.29
78675;BME280;67990;59.826;30.108;2023-06-04T13:10:55;101358.66;;;19.05;44.14
78675;BME280;67990;59.826;30.108;2023-06-04T13:13:22;101363.47;;;18.63;45.17
78675;BME280;67990;59.826;30.108;2023-06-04T13:16:07;101358.47;;;18.68;44.54
78675;BME280;67990;59.826;30.108;2023-06-04T13:18:35;101364.09;;;18.81;46.37
78675;BME280;67990;59.826;30.108;2023-06-04T13:21:38;101366.97;;;18.63;48.17
78675;BME280;67990;59.826;30.108;2023-06-04T13:24:23;101355.00;;;18.59;48.39
78675;BME280;67990;59.826;30.108;2023-06-04T13:27:09;101355.78;;;18.76;48.75
78675;BME280;67990;59.826;30.108;2023-06-04T13:30:13;101353.91;;;19.23;48.15
78675;BME280;67990;59.826;30.108;2023-06-04T13:32:40;101356.56;;;19.31;47.91
78675;BME280;67990;59.826;30.108;2023-06-04T13:38:12;101367.28;;;19.15;47.90
78675;BME280;67990;59.826;30.108;2023-06-04T13:43:45;101370.13;;;18.59;48.86
78675;BME280;67990;59.826;30.108;2023-06-04T13:46:31;101377.81;;;18.06;49.72
78675;BME280;67990;59.826;30.108;2023-06-04T13:48:58;101375.66;;;17.77;50.01
78675;BME280;67990;59.826;30.108;2023-06-04T13:51:25;101378.22;;;17.37;51.47
78675;BME280;67990;59.826;30.108;2023-06-04T13:54:11;101386.13;;;17.13;52.31
78675;BME280;67990;59.826;30.108;2023-06-04T13:56:38;101379.22;;;16.87;52.53
78675;BME280;67990;59.826;30.108;2023-06-04T13:59:07;101390.25;;;16.74;53.28
78675;BME280;67990;59.826;30.108;2023-06-04T14:01:53;101379.53;;;16.58;53.81
78675;BME280;67990;59.826;30.108;2023-06-04T14:04:20;101380.97;;;16.52;53.86
78675;BME280;67990;59.826;30.108;2023-06-04T14:07:05;101376.47;;;16.45;54.27
78675;BME280;67990;59.826;30.108;2023-06-04T14:09:32;101381.53;;;16.56;54.08
78675;BME280;67990;59.826;30.108;2023-06-04T14:11:59;101389.72;;;16.71;53.99
78675;BME280;67990;59.826;30.108;2023-06-04T14:14:28;101383.91;;;17.01;53.57
78675;BME280;67990;59.826;30.108;2023-06-04T14:17:01;101376.53;;;17.28;52.73
78675;BME280;67990;59.826;30.108;2023-06-04T14:19:28;101381.63;;;17.55;51.56
78675;BME280;67990;59.826;30.108;2023-06-04T14:21:56;101378.13;;;17.63;51.09
78675;BME280;67990;59.826;30.108;2023-06-04T14:24:23;101382.78;;;17.69;50.05
78675;BME280;67990;59.826;30.108;2023-06-04T14:29:37;101386.44;;;17.68;49.44
78675;BME280;67990;59.826;30.108;2023-06-04T14:32:23;101389.41;;;17.65;49.41
78675;BME280;67990;59.826;30.108;2023-06-04T14:34:51;101378.28;;;17.53;49.19
78675;BME280;67990;59.826;30.108;2023-06-04T14:37:18;101382.25;;;17.49;49.14
78675;BME280;67990;59.826;30.108;2023-06-04T14:40:05;101375.78;;;17.52;48.39
78675;BME280;67990;59.826;30.108;2023-06-04T14:42:33;101374.59;;;17.38;48.65
78675;BME280;67990;59.826;30.108;2023-06-04T14:45:02;101384.03;;;17.33;49.46
78675;BME280;67990;59.826;30.108;2023-06-04T14:47:47;101394.91;;;17.14;50.04
78675;BME280;67990;59.826;30.108;2023-06-04T14:50:16;101395.56;;;17.08;50.48
78675;BME280;67990;59.826;30.108;2023-06-04T14:53:02;101401.53;;;17.10;50.19
78675;BME280;67990;59.826;30.108;2023-06-04T14:55:32;101401.13;;;16.97;50.66
78675;BME280;67990;59.826;30.108;2023-06-04T14:58:19;101403.00;;;16.71;51.20
78675;BME280;67990;59.826;30.108;2023-06-04T15:00:47;101399.41;;;16.54;51.98
78675;BME280;67990;59.826;30.108;2023-06-04T15:03:15;101398.38;;;16.29;52.17
78675;BME280;67990;59.826;30.108;2023-06-04T15:06:19;101405.59;;;16.19;52.80
78675;BME280;67990;59.826;30.108;2023-06-04T15:08:46;101408.50;;;16.34;52.35
78675;BME280;67990;59.826;30.108;2023-06-04T15:11:14;101410.84;;;16.55;52.12
78675;BME280;67990;59.826;30.108;2023-06-04T15:16:29;101416.41;;;17.03;51.24
78675;BME280;67990;59.826;30.108;2023-06-04T15:18:56;101423.38;;;16.96;50.77
78675;BME280;67990;59.826;30.108;2023-06-04T15:21:23;101417.91;;;16.97;51.28
78675;BME280;67990;59.826;30.108;2023-06-04T15:23:50;101419.31;;;16.84;51.03
78675;BME280;67990;59.826;30.108;2023-06-04T15:26:36;101420.88;;;16.69;51.57
78675;BME280;67990;59.826;30.108;2023-06-04T15:29:03;101416.81;;;16.57;52.19
78675;BME280;67990;59.826;30.108;2023-06-04T15:31:49;101421.94;;;16.50;52.42
78675;BME280;67990;59.826;30.108;2023-06-04T15:34:16;101420.16;;;16.59;52.38
78675;BME280;67990;59.826;30.108;2023-06-04T15:36:44;101420.97;;;16.59;52.50
78675;BME280;67990;59.826;30.108;2023-06-04T15:39:12;101421.13;;;16.50;52.51
78675;BME280;67990;59.826;30.108;2023-06-04T15:44:24;101420.34;;;16.22;52.55